sensor_id;sensor_type;location;lat;lon;timestamp;temperature;humidity
43627;DHT22;29217;52.586;13.442;2022-07-21T00:00:23;22.70;99.90
43627;DHT22;29217;52.586;13.442;2022-07-21T00:02:50;22.60;99.90
43627;DHT22;29217;52.586;13.442;2022-07-21T00:05:16;22.60;99.90
43627;DHT22;29217;52.586;13.442;2022-07-21T00:07:42;22.50;99.90
43627;DHT22;29217;52.586;13.442;2022-07-21T00:10:09;22.50;99.90
43627;DHT22;29217;52.586;13.442;2022-07-21T00:12:34;22.40;99.90
43627;DHT22;29217;52.586;13.442;2022-07-21T00:15:00;22.40;99.90
43627;DHT22;29217;52.586;13.442;2022-07-21T00:17:26;22.30;99.90
43627;DHT22;29217;52.586;13.442;2022-07-21T00:19:51;22.30;99.90
43627;DHT22;29217;52.586;13.442;2022-07-21T00:22:17;22.30;99.90
43627;DHT22;29217;52.586;13.442;2022-07-21T00:24:42;22.20;99.90
43627;DHT22;29217;52.586;13.442;2022-07-21T00:27:08;22.20;99.90
43627;DHT22;29217;52.586;13.442;2022-07-21T00:29:33;22.20;99.90
43627;DHT22;29217;52.586;13.442;2022-07-21T00:31:59;22.10;99.90
43627;DHT22;29217;52.586;13.442;2022-07-21T00:34:26;22.10;99.90
43627;DHT22;29217;52.586;13.442;2022-07-21T00:36:51;22.00;99.90
43627;DHT22;29217;52.586;13.442;2022-07-21T00:39:17;22.00;99.90
43627;DHT22;29217;52.586;13.442;2022-07-21T00:41:42;22.00;99.90
43627;DHT22;29217;52.586;13.442;2022-07-21T00:44:19;21.90;99.90
43627;DHT22;29217;52.586;13.442;2022-07-21T00:46:45;21.80;99.90
43627;DHT22;29217;52.586;13.442;2022-07-21T00:49:11;21.80;99.90
43627;DHT22;29217;52.586;13.442;2022-07-21T00:51:36;21.80;99.90
43627;DHT22;29217;52.586;13.442;2022-07-21T00:54:02;21.80;99.90
43627;DHT22;29217;52.586;13.442;2022-07-21T00:56:27;21.70;99.90
43627;DHT22;29217;52.586;13.442;2022-07-21T00:58:53;21.70;99.90
43627;DHT22;29217;52.586;13.442;2022-07-21T01:01:19;21.70;99.90
43627;DHT22;29217;52.586;13.442;2022-07-21T01:03:44;21.60;99.90
43627;DHT22;29217;52.586;13.442;2022-07-21T01:06:10;21.60;99.90
43627;DHT22;29217;52.586;13.442;2022-07-21T01:08:35;21.60;99.90
43627;DHT22;29217;52.586;13.442;2022-07-21T01:11:01;21.60;99.90
43627;DHT22;29217;52.586;13.442;2022-07-21T01:13:27;21.60;99.90
43627;DHT22;29217;52.586;13.442;2022-07-21T01:15:52;21.50;99.90
43627;DHT22;29217;52.586;13.442;2022-07-21T01:18:18;21.40;99.90
43627;DHT22;29217;52.586;13.442;2022-07-21T01:20:51;21.40;99.90
43627;DHT22;29217;52.586;13.442;2022-07-21T01:23:17;21.40;99.90
43627;DHT22;29217;52.586;13.442;2022-07-21T01:25:49;21.40;99.90
43627;DHT22;29217;52.586;13.442;2022-07-21T01:28:15;21.20;99.90
43627;DHT22;29217;52.586;13.442;2022-07-21T01:30:41;21.10;99.90
43627;DHT22;29217;52.586;13.442;2022-07-21T01:33:07;21.10;99.90
43627;DHT22;29217;52.586;13.442;2022-07-21T01:35:32;21.20;99.90
43627;DHT22;29217;52.586;13.442;2022-07-21T01:37:59;21.20;99.90
43627;DHT22;29217;52.586;13.442;2022-07-21T01:40:24;21.30;99.90
43627;DHT22;29217;52.586;13.442;2022-07-21T01:43:09;21.30;99.90
43627;DHT22;29217;52.586;13.442;2022-07-21T01:45:34;21.20;99.90
43627;DHT22;29217;52.586;13.442;2022-07-21T01:48:00;21.20;99.90
43627;DHT22;29217;52.586;13.442;2022-07-21T01:50:26;21.20;99.90
43627;DHT22;29217;52.586;13.442;2022-07-21T01:52:53;21.20;99.90
43627;DHT22;29217;52.586;13.442;2022-07-21T01:55:19;21.20;99.90
43627;DHT22;29217;52.586;13.442;2022-07-21T01:57:45;21.20;99.90
43627;DHT22;29217;52.586;13.442;2022-07-21T02:00:10;21.30;99.90
43627;DHT22;29217;52.586;13.442;2022-07-21T02:02:36;21.30;99.90
43627;DHT22;29217;52.586;13.442;2022-07-21T02:05:02;21.30;99.90
43627;DHT22;29217;52.586;13.442;2022-07-21T02:07:28;21.30;99.90
43627;DHT22;29217;52.586;13.442;2022-07-21T02:09:53;21.30;99.90
43627;DHT22;29217;52.586;13.442;2022-07-21T02:12:19;21.30;99.90
43627;DHT22;29217;52.586;13.442;2022-07-21T02:14:45;21.30;99.90
43627;DHT22;29217;52.586;13.442;2022-07-21T02:17:10;21.30;99.90
43627;DHT22;29217;52.586;13.442;2022-07-21T02:19:36;21.40;99.90
43627;DHT22;29217;52.586;13.442;2022-07-21T02:22:01;21.40;99.90
43627;DHT22;29217;52.586;13.442;2022-07-21T02:24:27;21.40;99.90
43627;DHT22;29217;52.586;13.442;2022-07-21T02:26:52;21.40;99.90
43627;DHT22;29217;52.586;13.442;2022-07-21T02:29:18;21.40;99.90
43627;DHT22;29217;52.586;13.442;2022-07-21T02:31:43;21.40;99.90
43627;DHT22;29217;52.586;13.442;2022-07-21T02:34:09;21.30;99.90
43627;DHT22;29217;52.586;13.442;2022-07-21T02:36:35;21.30;99.90
43627;DHT22;29217;52.586;13.442;2022-07-21T02:39:00;21.30;99.90
43627;DHT22;29217;52.586;13.442;2022-07-21T02:41:26;21.30;99.90
43627;DHT22;29217;52.586;13.442;2022-07-21T02:43:52;21.20;99.90
43627;DHT22;29217;52.586;13.442;2022-07-21T02:46:17;21.20;99.90
43627;DHT22;29217;52.586;13.442;2022-07-21T02:48:43;21.20;99.90
43627;DHT22;29217;52.586;13.442;2022-07-21T02:51:08;21.20;99.90
43627;DHT22;29217;52.586;13.442;2022-07-21T02:53:34;21.20;99.90
43627;DHT22;29217;52.586;13.442;2022-07-21T02:55:59;21.30;99.90
43627;DHT22;29217;52.586;13.442;2022-07-21T02:58:27;21.20;99.90
43627;DHT22;29217;52.586;13.442;2022-07-21T03:03:22;21.30;99.90
43627;DHT22;29217;52.586;13.442;2022-07-21T03:05:48;21.40;99.90
43627;DHT22;29217;52.586;13.442;2022-07-21T03:08:14;21.50;99.90
43627;DHT22;29217;52.586;13.442;2022-07-21T03:10:40;21.80;99.90
43627;DHT22;29217;52.586;13.442;2022-07-21T03:13:06;22.00;99.90
43627;DHT22;29217;52.586;13.442;2022-07-21T03:15:32;22.10;99.90
43627;DHT22;29217;52.586;13.442;2022-07-21T03:17:58;22.40;99.90
43627;DHT22;29217;52.586;13.442;2022-07-21T03:20:29;22.50;99.90
43627;DHT22;29217;52.586;13.442;2022-07-21T03:22:56;22.50;99.90
43627;DHT22;29217;52.586;13.442;2022-07-21T03:25:21;22.60;99.90
43627;DHT22;29217;52.586;13.442;2022-07-21T03:27:48;22.70;99.90
43627;DHT22;29217;52.586;13.442;2022-07-21T03:30:14;22.70;99.90
43627;DHT22;29217;52.586;13.442;2022-07-21T03:32:41;22.80;99.90
43627;DHT22;29217;52.586;13.442;2022-07-21T03:35:08;23.00;99.90
43627;DHT22;29217;52.586;13.442;2022-07-21T03:37:40;23.10;99.90
43627;DHT22;29217;52.586;13.442;2022-07-21T03:40:07;23.30;99.90
43627;DHT22;29217;52.586;13.442;2022-07-21T03:42:32;23.40;99.90
43627;DHT22;29217;52.586;13.442;2022-07-21T03:44:58;23.50;99.90
43627;DHT22;29217;52.586;13.442;2022-07-21T03:47:24;23.60;99.90
43627;DHT22;29217;52.586;13.442;2022-07-21T03:49:49;23.70;99.90
43627;DHT22;29217;52.586;13.442;2022-07-21T03:52:14;23.70;99.90
43627;DHT22;29217;52.586;13.442;2022-07-21T03:54:40;23.70;99.90
43627;DHT22;29217;52.586;13.442;2022-07-21T03:57:06;23.60;99.90
43627;DHT22;29217;52.586;13.442;2022-07-21T03:59:31;23.40;99.90
43627;DHT22;29217;52.586;13.442;2022-07-21T04:01:57;23.50;99.90
43627;DHT22;29217;52.586;13.442;2022-07-21T04:04:22;23.50;99.90
43627;DHT22;29217;52.586;13.442;2022-07-21T04:06:48;23.50;99.90
43627;DHT22;29217;52.586;13.442;2022-07-21T04:09:13;23.50;99.90
43627;DHT22;29217;52.586;13.442;2022-07-21T04:11:39;23.50;99.90
43627;DHT22;29217;52.586;13.442;2022-07-21T04:14:04;23.50;99.90
43627;DHT22;29217;52.586;13.442;2022-07-21T04:16:30;23.50;99.90
43627;DHT22;29217;52.586;13.442;2022-07-21T04:18:55;23.50;99.90
43627;DHT22;29217;52.586;13.442;2022-07-21T04:21:21;23.50;99.90
43627;DHT22;29217;52.586;13.442;2022-07-21T04:23:46;23.60;99.90
43627;DHT22;29217;52.586;13.442;2022-07-21T04:26:12;23.70;99.90
43627;DHT22;29217;52.586;13.442;2022-07-21T04:28:37;23.80;99.90
43627;DHT22;29217;52.586;13.442;2022-07-21T04:31:03;23.80;99.90
43627;DHT22;29217;52.586;13.442;2022-07-21T04:33:28;23.90;99.90
43627;DHT22;29217;52.586;13.442;2022-07-21T04:35:54;24.00;99.90
43627;DHT22;29217;52.586;13.442;2022-07-21T04:38:19;24.10;99.90
43627;DHT22;29217;52.586;13.442;2022-07-21T04:40:45;24.10;99.90
43627;DHT22;29217;52.586;13.442;2022-07-21T04:43:11;24.20;99.90
43627;DHT22;29217;52.586;13.442;2022-07-21T04:45:36;24.20;99.90
43627;DHT22;29217;52.586;13.442;2022-07-21T04:48:02;24.20;99.90
43627;DHT22;29217;52.586;13.442;2022-07-21T04:50:28;24.30;99.90
43627;DHT22;29217;52.586;13.442;2022-07-21T04:52:54;24.30;99.90
43627;DHT22;29217;52.586;13.442;2022-07-21T04:55:21;24.30;99.90
43627;DHT22;29217;52.586;13.442;2022-07-21T04:57:49;24.30;99.90
43627;DHT22;29217;52.586;13.442;2022-07-21T05:00:19;24.30;99.90
43627;DHT22;29217;52.586;13.442;2022-07-21T05:02:45;24.30;99.90
43627;DHT22;29217;52.586;13.442;2022-07-21T05:05:12;24.40;99.90
43627;DHT22;29217;52.586;13.442;2022-07-21T05:07:38;24.40;99.90
43627;DHT22;29217;52.586;13.442;2022-07-21T05:10:15;24.40;99.90
43627;DHT22;29217;52.586;13.442;2022-07-21T05:12:41;24.30;99.90
43627;DHT22;29217;52.586;13.442;2022-07-21T05:15:08;24.30;99.90
43627;DHT22;29217;52.586;13.442;2022-07-21T05:17:34;24.20;99.90
43627;DHT22;29217;52.586;13.442;2022-07-21T05:20:00;24.10;99.90
43627;DHT22;29217;52.586;13.442;2022-07-21T05:22:26;24.10;99.90
43627;DHT22;29217;52.586;13.442;2022-07-21T05:24:51;24.10;99.90
43627;DHT22;29217;52.586;13.442;2022-07-21T05:27:17;24.10;99.90
43627;DHT22;29217;52.586;13.442;2022-07-21T05:29:42;24.10;99.90
43627;DHT22;29217;52.586;13.442;2022-07-21T05:32:08;24.10;99.90
43627;DHT22;29217;52.586;13.442;2022-07-21T05:34:34;24.00;99.90
43627;DHT22;29217;52.586;13.442;2022-07-21T05:36:59;24.00;99.90
43627;DHT22;29217;52.586;13.442;2022-07-21T05:39:25;24.10;99.90
43627;DHT22;29217;52.586;13.442;2022-07-21T05:41:50;24.20;99.90
43627;DHT22;29217;52.586;13.442;2022-07-21T05:44:16;24.30;99.90
43627;DHT22;29217;52.586;13.442;2022-07-21T05:46:41;24.20;99.90
43627;DHT22;29217;52.586;13.442;2022-07-21T05:49:07;24.20;99.90
43627;DHT22;29217;52.586;13.442;2022-07-21T05:51:32;24.10;99.90
43627;DHT22;29217;52.586;13.442;2022-07-21T05:53:58;24.10;99.90
43627;DHT22;29217;52.586;13.442;2022-07-21T05:56:23;24.10;99.90
43627;DHT22;29217;52.586;13.442;2022-07-21T05:58:49;24.10;99.90
43627;DHT22;29217;52.586;13.442;2022-07-21T06:01:14;24.10;99.90
43627;DHT22;29217;52.586;13.442;2022-07-21T06:03:47;24.20;99.90
43627;DHT22;29217;52.586;13.442;2022-07-21T06:06:14;24.20;99.90
43627;DHT22;29217;52.586;13.442;2022-07-21T06:08:41;24.20;99.90
43627;DHT22;29217;52.586;13.442;2022-07-21T06:11:08;24.20;99.90
43627;DHT22;29217;52.586;13.442;2022-07-21T06:13:35;24.20;99.90
43627;DHT22;29217;52.586;13.442;2022-07-21T06:16:01;24.20;99.90
43627;DHT22;29217;52.586;13.442;2022-07-21T06:18:26;24.20;99.90
43627;DHT22;29217;52.586;13.442;2022-07-21T06:20:52;24.20;99.90
43627;DHT22;29217;52.586;13.442;2022-07-21T06:23:18;24.20;99.90
43627;DHT22;29217;52.586;13.442;2022-07-21T06:25:44;24.10;99.90
43627;DHT22;29217;52.586;13.442;2022-07-21T06:28:09;24.10;99.90
43627;DHT22;29217;52.586;13.442;2022-07-21T06:30:35;24.10;99.90
43627;DHT22;29217;52.586;13.442;2022-07-21T06:33:01;24.20;99.90
43627;DHT22;29217;52.586;13.442;2022-07-21T06:35:26;24.30;99.90
43627;DHT22;29217;52.586;13.442;2022-07-21T06:37:52;24.40;99.90
43627;DHT22;29217;52.586;13.442;2022-07-21T06:40:18;24.50;99.90
43627;DHT22;29217;52.586;13.442;2022-07-21T06:42:43;24.50;99.90
43627;DHT22;29217;52.586;13.442;2022-07-21T06:45:09;24.60;99.90
43627;DHT22;29217;52.586;13.442;2022-07-21T06:47:34;24.70;99.90
43627;DHT22;29217;52.586;13.442;2022-07-21T06:50:00;24.80;99.90
43627;DHT22;29217;52.586;13.442;2022-07-21T06:52:29;24.80;99.90
43627;DHT22;29217;52.586;13.442;2022-07-21T06:54:55;24.80;99.90
43627;DHT22;29217;52.586;13.442;2022-07-21T06:57:20;24.70;99.90
43627;DHT22;29217;52.586;13.442;2022-07-21T06:59:46;24.70;99.90
43627;DHT22;29217;52.586;13.442;2022-07-21T07:02:12;24.80;99.90
43627;DHT22;29217;52.586;13.442;2022-07-21T07:04:37;24.90;99.90
43627;DHT22;29217;52.586;13.442;2022-07-21T07:07:03;24.90;99.90
43627;DHT22;29217;52.586;13.442;2022-07-21T07:09:29;24.90;99.90
43627;DHT22;29217;52.586;13.442;2022-07-21T07:11:54;24.90;99.90
43627;DHT22;29217;52.586;13.442;2022-07-21T07:14:29;25.10;99.90
43627;DHT22;29217;52.586;13.442;2022-07-21T07:16:54;25.10;99.90
43627;DHT22;29217;52.586;13.442;2022-07-21T07:19:20;25.10;99.90
43627;DHT22;29217;52.586;13.442;2022-07-21T07:21:46;25.20;99.90
43627;DHT22;29217;52.586;13.442;2022-07-21T07:24:11;25.20;99.90
43627;DHT22;29217;52.586;13.442;2022-07-21T07:26:37;25.20;99.90
43627;DHT22;29217;52.586;13.442;2022-07-21T07:29:03;25.40;99.90
43627;DHT22;29217;52.586;13.442;2022-07-21T07:31:28;25.40;99.90
43627;DHT22;29217;52.586;13.442;2022-07-21T07:33:54;25.40;99.90
43627;DHT22;29217;52.586;13.442;2022-07-21T07:36:23;25.50;99.90
43627;DHT22;29217;52.586;13.442;2022-07-21T07:38:48;25.60;99.90
43627;DHT22;29217;52.586;13.442;2022-07-21T07:41:14;25.70;99.90
43627;DHT22;29217;52.586;13.442;2022-07-21T07:43:40;25.80;99.90
43627;DHT22;29217;52.586;13.442;2022-07-21T07:46:05;25.90;99.90
43627;DHT22;29217;52.586;13.442;2022-07-21T07:48:32;25.90;99.90
43627;DHT22;29217;52.586;13.442;2022-07-21T07:50:59;26.00;99.90
43627;DHT22;29217;52.586;13.442;2022-07-21T07:53:25;26.10;99.90
43627;DHT22;29217;52.586;13.442;2022-07-21T07:55:50;26.20;99.90
43627;DHT22;29217;52.586;13.442;2022-07-21T07:58:16;26.40;99.90
43627;DHT22;29217;52.586;13.442;2022-07-21T08:00:42;26.40;99.90
43627;DHT22;29217;52.586;13.442;2022-07-21T08:03:07;26.40;99.90
43627;DHT22;29217;52.586;13.442;2022-07-21T08:05:33;26.40;99.90
43627;DHT22;29217;52.586;13.442;2022-07-21T08:07:58;26.50;99.90
43627;DHT22;29217;52.586;13.442;2022-07-21T08:10:24;26.50;99.90
43627;DHT22;29217;52.586;13.442;2022-07-21T08:12:50;26.50;99.90
43627;DHT22;29217;52.586;13.442;2022-07-21T08:15:15;26.60;99.90
43627;DHT22;29217;52.586;13.442;2022-07-21T08:17:41;26.50;99.90
43627;DHT22;29217;52.586;13.442;2022-07-21T08:20:07;26.40;99.90
43627;DHT22;29217;52.586;13.442;2022-07-21T08:22:33;26.40;99.90
43627;DHT22;29217;52.586;13.442;2022-07-21T08:24:58;26.50;99.90
43627;DHT22;29217;52.586;13.442;2022-07-21T08:27:24;26.40;99.90
43627;DHT22;29217;52.586;13.442;2022-07-21T08:29:49;26.40;99.90
43627;DHT22;29217;52.586;13.442;2022-07-21T08:32:16;26.40;99.90
43627;DHT22;29217;52.586;13.442;2022-07-21T08:34:43;26.40;99.90
43627;DHT22;29217;52.586;13.442;2022-07-21T08:37:09;26.60;99.90
43627;DHT22;29217;52.586;13.442;2022-07-21T08:39:35;26.70;99.90
43627;DHT22;29217;52.586;13.442;2022-07-21T08:42:01;26.80;99.90
43627;DHT22;29217;52.586;13.442;2022-07-21T08:44:27;26.80;99.90
43627;DHT22;29217;52.586;13.442;2022-07-21T08:46:52;26.80;99.90
43627;DHT22;29217;52.586;13.442;2022-07-21T08:49:22;26.80;99.90
43627;DHT22;29217;52.586;13.442;2022-07-21T08:51:51;26.90;99.90
43627;DHT22;29217;52.586;13.442;2022-07-21T08:54:19;26.90;99.90
43627;DHT22;29217;52.586;13.442;2022-07-21T08:56:45;26.80;99.90
43627;DHT22;29217;52.586;13.442;2022-07-21T08:59:10;26.90;99.90
43627;DHT22;29217;52.586;13.442;2022-07-21T09:01:36;26.90;99.90
43627;DHT22;29217;52.586;13.442;2022-07-21T09:04:31;26.90;99.90
43627;DHT22;29217;52.586;13.442;2022-07-21T09:07:01;26.90;99.90
43627;DHT22;29217;52.586;13.442;2022-07-21T09:09:29;27.00;99.90
43627;DHT22;29217;52.586;13.442;2022-07-21T09:11:55;27.30;99.90
43627;DHT22;29217;52.586;13.442;2022-07-21T09:14:23;27.50;99.90
43627;DHT22;29217;52.586;13.442;2022-07-21T09:16:52;27.70;99.90
43627;DHT22;29217;52.586;13.442;2022-07-21T09:19:31;28.10;99.90
43627;DHT22;29217;52.586;13.442;2022-07-21T09:22:02;28.30;99.90
43627;DHT22;29217;52.586;13.442;2022-07-21T09:24:30;28.30;99.90
43627;DHT22;29217;52.586;13.442;2022-07-21T09:27:16;28.20;99.90
43627;DHT22;29217;52.586;13.442;2022-07-21T09:29:58;28.20;99.90
43627;DHT22;29217;52.586;13.442;2022-07-21T09:32:30;28.30;99.90
43627;DHT22;29217;52.586;13.442;2022-07-21T09:35:05;28.10;99.90
43627;DHT22;29217;52.586;13.442;2022-07-21T09:37:32;28.00;99.90
43627;DHT22;29217;52.586;13.442;2022-07-21T09:40:04;28.00;99.90
43627;DHT22;29217;52.586;13.442;2022-07-21T09:42:40;28.10;99.90
43627;DHT22;29217;52.586;13.442;2022-07-21T09:45:11;28.10;99.90
43627;DHT22;29217;52.586;13.442;2022-07-21T09:47:38;28.10;99.90
43627;DHT22;29217;52.586;13.442;2022-07-21T09:50:05;28.10;99.90
43627;DHT22;29217;52.586;13.442;2022-07-21T09:52:35;28.10;99.90
43627;DHT22;29217;52.586;13.442;2022-07-21T09:55:04;28.20;99.90
43627;DHT22;29217;52.586;13.442;2022-07-21T09:57:31;28.20;99.90
43627;DHT22;29217;52.586;13.442;2022-07-21T09:59:57;28.30;99.90
43627;DHT22;29217;52.586;13.442;2022-07-21T10:02:27;28.30;99.90
43627;DHT22;29217;52.586;13.442;2022-07-21T10:05:03;28.40;99.90
43627;DHT22;29217;52.586;13.442;2022-07-21T10:07:30;28.50;99.90
43627;DHT22;29217;52.586;13.442;2022-07-21T10:09:56;28.50;99.90
43627;DHT22;29217;52.586;13.442;2022-07-21T10:12:24;28.50;99.90
43627;DHT22;29217;52.586;13.442;2022-07-21T10:14:50;28.50;99.90
43627;DHT22;29217;52.586;13.442;2022-07-21T10:17:18;28.60;99.90
43627;DHT22;29217;52.586;13.442;2022-07-21T10:20:03;28.70;99.90
43627;DHT22;29217;52.586;13.442;2022-07-21T10:25:01;28.80;99.90
43627;DHT22;29217;52.586;13.442;2022-07-21T10:27:26;28.80;99.90
43627;DHT22;29217;52.586;13.442;2022-07-21T10:29:54;28.90;99.90
43627;DHT22;29217;52.586;13.442;2022-07-21T10:32:32;28.90;99.90
43627;DHT22;29217;52.586;13.442;2022-07-21T10:35:00;28.90;99.90
43627;DHT22;29217;52.586;13.442;2022-07-21T10:47:55;28.90;99.90
43627;DHT22;29217;52.586;13.442;2022-07-21T10:50:40;28.80;99.90
43627;DHT22;29217;52.586;13.442;2022-07-21T10:53:13;28.60;99.90
43627;DHT22;29217;52.586;13.442;2022-07-21T10:55:45;28.40;99.90
43627;DHT22;29217;52.586;13.442;2022-07-21T10:58:17;28.30;99.90
43627;DHT22;29217;52.586;13.442;2022-07-21T11:00:54;28.20;99.90
43627;DHT22;29217;52.586;13.442;2022-07-21T11:08:38;28.20;99.90
43627;DHT22;29217;52.586;13.442;2022-07-21T11:11:24;28.30;99.90
43627;DHT22;29217;52.586;13.442;2022-07-21T11:14:12;28.30;99.90
43627;DHT22;29217;52.586;13.442;2022-07-21T11:19:43;28.30;99.90
43627;DHT22;29217;52.586;13.442;2022-07-21T11:22:30;28.30;99.90
43627;DHT22;29217;52.586;13.442;2022-07-21T11:27:24;28.70;99.90
43627;DHT22;29217;52.586;13.442;2022-07-21T11:29:56;28.70;99.90
43627;DHT22;29217;52.586;13.442;2022-07-21T11:32:23;28.70;99.90
43627;DHT22;29217;52.586;13.442;2022-07-21T11:34:53;28.90;99.90
43627;DHT22;29217;52.586;13.442;2022-07-21T11:37:28;28.90;99.90
43627;DHT22;29217;52.586;13.442;2022-07-21T11:39:54;28.90;99.90
43627;DHT22;29217;52.586;13.442;2022-07-21T11:42:21;29.10;99.90
43627;DHT22;29217;52.586;13.442;2022-07-21T11:44:46;29.10;99.90
43627;DHT22;29217;52.586;13.442;2022-07-21T11:47:14;29.20;99.90
43627;DHT22;29217;52.586;13.442;2022-07-21T11:49:42;29.20;99.90
43627;DHT22;29217;52.586;13.442;2022-07-21T11:52:12;29.10;99.90
43627;DHT22;29217;52.586;13.442;2022-07-21T11:54:44;28.90;99.90
43627;DHT22;29217;52.586;13.442;2022-07-21T11:57:11;28.70;99.90
43627;DHT22;29217;52.586;13.442;2022-07-21T11:59:37;28.60;99.90
43627;DHT22;29217;52.586;13.442;2022-07-21T12:02:32;28.70;99.90
43627;DHT22;29217;52.586;13.442;2022-07-21T12:05:06;28.60;99.90
43627;DHT22;29217;52.586;13.442;2022-07-21T12:07:42;28.40;99.90
43627;DHT22;29217;52.586;13.442;2022-07-21T12:10:13;28.30;99.90
43627;DHT22;29217;52.586;13.442;2022-07-21T12:12:44;28.30;99.90
43627;DHT22;29217;52.586;13.442;2022-07-21T12:15:27;28.30;99.90
43627;DHT22;29217;52.586;13.442;2022-07-21T12:18:22;28.20;99.90
43627;DHT22;29217;52.586;13.442;2022-07-21T12:21:01;28.20;99.90
43627;DHT22;29217;52.586;13.442;2022-07-21T12:23:29;28.10;99.90
43627;DHT22;29217;52.586;13.442;2022-07-21T12:25:58;28.00;99.90
43627;DHT22;29217;52.586;13.442;2022-07-21T12:31:12;27.80;99.90
43627;DHT22;29217;52.586;13.442;2022-07-21T12:33:40;27.60;99.90
43627;DHT22;29217;52.586;13.442;2022-07-21T12:36:08;27.50;99.90
43627;DHT22;29217;52.586;13.442;2022-07-21T12:38:38;27.40;99.90
43627;DHT22;29217;52.586;13.442;2022-07-21T12:41:05;27.20;99.90
43627;DHT22;29217;52.586;13.442;2022-07-21T12:43:31;27.20;99.90
43627;DHT22;29217;52.586;13.442;2022-07-21T12:46:02;27.20;99.90
43627;DHT22;29217;52.586;13.442;2022-07-21T12:48:34;27.10;99.90
43627;DHT22;29217;52.586;13.442;2022-07-21T12:53:31;27.30;99.90
43627;DHT22;29217;52.586;13.442;2022-07-21T12:55:57;27.20;99.90
43627;DHT22;29217;52.586;13.442;2022-07-21T12:58:23;27.10;99.90
43627;DHT22;29217;52.586;13.442;2022-07-21T13:00:49;27.10;99.90
43627;DHT22;29217;52.586;13.442;2022-07-21T13:03:15;27.10;99.90
43627;DHT22;29217;52.586;13.442;2022-07-21T13:05:41;27.00;99.90
43627;DHT22;29217;52.586;13.442;2022-07-21T13:08:06;27.00;99.90
43627;DHT22;29217;52.586;13.442;2022-07-21T13:10:32;27.00;99.90
43627;DHT22;29217;52.586;13.442;2022-07-21T13:12:58;26.90;99.90
43627;DHT22;29217;52.586;13.442;2022-07-21T13:15:24;26.90;99.90
43627;DHT22;29217;52.586;13.442;2022-07-21T13:17:50;26.80;99.90
43627;DHT22;29217;52.586;13.442;2022-07-21T13:20:16;26.70;99.90
43627;DHT22;29217;52.586;13.442;2022-07-21T13:22:42;26.40;99.90
43627;DHT22;29217;52.586;13.442;2022-07-21T13:25:09;26.20;99.90
43627;DHT22;29217;52.586;13.442;2022-07-21T13:27:35;26.20;99.90
43627;DHT22;29217;52.586;13.442;2022-07-21T13:30:03;26.00;99.90
43627;DHT22;29217;52.586;13.442;2022-07-21T13:32:29;25.90;99.90
43627;DHT22;29217;52.586;13.442;2022-07-21T13:34:54;25.70;99.90
43627;DHT22;29217;52.586;13.442;2022-07-21T13:37:20;25.50;99.90
43627;DHT22;29217;52.586;13.442;2022-07-21T13:39:45;25.30;99.90
43627;DHT22;29217;52.586;13.442;2022-07-21T13:42:11;25.10;99.90
43627;DHT22;29217;52.586;13.442;2022-07-21T13:44:37;25.00;99.90
43627;DHT22;29217;52.586;13.442;2022-07-21T13:47:03;24.80;99.90
43627;DHT22;29217;52.586;13.442;2022-07-21T13:49:28;24.80;99.90
43627;DHT22;29217;52.586;13.442;2022-07-21T13:51:54;24.80;99.90
43627;DHT22;29217;52.586;13.442;2022-07-21T13:54:20;24.90;99.90
43627;DHT22;29217;52.586;13.442;2022-07-21T13:56:46;24.80;99.90
43627;DHT22;29217;52.586;13.442;2022-07-21T13:59:12;24.60;99.90
43627;DHT22;29217;52.586;13.442;2022-07-21T14:01:38;24.50;99.90
43627;DHT22;29217;52.586;13.442;2022-07-21T14:04:03;24.50;99.90
43627;DHT22;29217;52.586;13.442;2022-07-21T14:06:30;24.60;99.90
43627;DHT22;29217;52.586;13.442;2022-07-21T14:08:56;24.50;99.90
43627;DHT22;29217;52.586;13.442;2022-07-21T14:11:21;24.60;99.90
43627;DHT22;29217;52.586;13.442;2022-07-21T14:13:49;24.60;99.90
43627;DHT22;29217;52.586;13.442;2022-07-21T14:16:15;24.70;99.90
43627;DHT22;29217;52.586;13.442;2022-07-21T14:18:41;24.80;99.90
43627;DHT22;29217;52.586;13.442;2022-07-21T14:21:07;25.20;99.90
43627;DHT22;29217;52.586;13.442;2022-07-21T14:23:33;25.70;99.90
43627;DHT22;29217;52.586;13.442;2022-07-21T14:25:59;25.90;99.90
43627;DHT22;29217;52.586;13.442;2022-07-21T14:28:25;25.70;99.90
43627;DHT22;29217;52.586;13.442;2022-07-21T14:30:51;25.60;99.90
43627;DHT22;29217;52.586;13.442;2022-07-21T14:33:16;25.40;99.90
43627;DHT22;29217;52.586;13.442;2022-07-21T14:35:43;25.20;99.90
43627;DHT22;29217;52.586;13.442;2022-07-21T14:38:09;25.10;99.90
43627;DHT22;29217;52.586;13.442;2022-07-21T14:40:35;25.30;99.90
43627;DHT22;29217;52.586;13.442;2022-07-21T14:43:01;25.70;99.90
43627;DHT22;29217;52.586;13.442;2022-07-21T14:45:27;26.00;99.90
43627;DHT22;29217;52.586;13.442;2022-07-21T14:47:55;26.50;99.90
43627;DHT22;29217;52.586;13.442;2022-07-21T14:50:22;26.60;99.90
43627;DHT22;29217;52.586;13.442;2022-07-21T14:52:48;26.70;99.90
43627;DHT22;29217;52.586;13.442;2022-07-21T14:55:14;26.80;99.90
43627;DHT22;29217;52.586;13.442;2022-07-21T14:57:40;26.80;99.90
43627;DHT22;29217;52.586;13.442;2022-07-21T15:00:08;26.60;99.90
43627;DHT22;29217;52.586;13.442;2022-07-21T15:02:34;26.70;99.90
43627;DHT22;29217;52.586;13.442;2022-07-21T15:05:00;26.90;99.90
43627;DHT22;29217;52.586;13.442;2022-07-21T15:07:26;27.00;99.90
43627;DHT22;29217;52.586;13.442;2022-07-21T15:09:51;27.00;99.90
43627;DHT22;29217;52.586;13.442;2022-07-21T15:12:17;27.00;99.90
43627;DHT22;29217;52.586;13.442;2022-07-21T15:14:42;27.00;99.90
43627;DHT22;29217;52.586;13.442;2022-07-21T15:17:08;26.80;99.90
43627;DHT22;29217;52.586;13.442;2022-07-21T15:19:34;26.50;99.90
43627;DHT22;29217;52.586;13.442;2022-07-21T15:22:00;26.20;99.90
43627;DHT22;29217;52.586;13.442;2022-07-21T15:24:25;25.90;99.90
43627;DHT22;29217;52.586;13.442;2022-07-21T15:26:51;25.80;99.90
43627;DHT22;29217;52.586;13.442;2022-07-21T15:29:16;25.70;99.90
43627;DHT22;29217;52.586;13.442;2022-07-21T15:31:42;25.80;99.90
43627;DHT22;29217;52.586;13.442;2022-07-21T15:34:09;25.80;99.90
43627;DHT22;29217;52.586;13.442;2022-07-21T15:36:35;25.80;99.90
43627;DHT22;29217;52.586;13.442;2022-07-21T15:39:01;25.80;99.90
43627;DHT22;29217;52.586;13.442;2022-07-21T15:41:27;25.70;99.90
43627;DHT22;29217;52.586;13.442;2022-07-21T15:43:53;25.80;99.90
43627;DHT22;29217;52.586;13.442;2022-07-21T15:46:19;25.90;99.90